createdAt,value
2018-12-29T00:00:55.975Z,8.41
2018-12-29T00:03:26.276Z,8.48
2018-12-29T00:05:56.694Z,8.49
2018-12-29T00:08:27.044Z,8.51
2018-12-29T00:10:57.463Z,8.42
2018-12-29T00:13:27.841Z,8.45
2018-12-29T00:15:58.225Z,8.45
2018-12-29T00:18:28.560Z,8.46
2018-12-29T00:20:58.970Z,8.45
2018-12-29T00:23:29.307Z,8.48
2018-12-29T00:25:59.696Z,8.48
2018-12-29T00:28:30.112Z,8.50
2018-12-29T00:31:00.451Z,8.50
2018-12-29T00:33:30.846Z,8.53
2018-12-29T00:36:01.150Z,8.47
2018-12-29T00:38:31.496Z,8.49
2018-12-29T00:41:01.846Z,8.51
2018-12-29T00:43:32.188Z,8.48
2018-12-29T00:46:02.532Z,8.47
2018-12-29T00:48:32.968Z,8.50
2018-12-29T00:51:03.339Z,8.53
2018-12-29T00:53:33.798Z,8.58
2018-12-29T00:56:04.172Z,8.59
2018-12-29T00:58:34.580Z,8.61
2018-12-29T01:01:04.882Z,8.61
2018-12-29T01:03:35.231Z,8.65
2018-12-29T01:06:05.621Z,8.69
2018-12-29T01:08:35.974Z,8.64
2018-12-29T01:11:06.345Z,8.63
2018-12-29T01:13:36.681Z,8.64
2018-12-29T01:16:07.094Z,8.66
2018-12-29T01:18:37.457Z,8.73
2018-12-29T01:21:07.835Z,8.66
2018-12-29T01:23:38.247Z,8.70
2018-12-29T01:26:08.612Z,8.68
2018-12-29T01:28:38.948Z,8.68
2018-12-29T01:31:09.292Z,8.70
2018-12-29T01:33:39.593Z,8.69
2018-12-29T01:36:09.931Z,8.67
2018-12-29T01:38:40.312Z,8.69
2018-12-29T01:41:10.648Z,8.65
2018-12-29T01:43:41.028Z,8.66
2018-12-29T01:46:11.376Z,8.65
2018-12-29T01:48:41.679Z,8.68
2018-12-29T01:51:12.064Z,8.68
2018-12-29T01:53:48.323Z,8.70
2018-12-29T01:56:18.703Z,8.66
2018-12-29T01:58:49.081Z,8.69
2018-12-29T02:01:19.453Z,8.63
2018-12-29T02:03:49.840Z,8.61
2018-12-29T02:06:20.139Z,8.64
2018-12-29T02:08:50.440Z,8.67
2018-12-29T02:11:20.815Z,8.64
2018-12-29T02:13:51.181Z,8.67
2018-12-29T02:16:21.556Z,8.64
2018-12-29T02:18:51.926Z,8.62
2018-12-29T02:21:22.288Z,8.63
2018-12-29T02:23:52.711Z,8.60
2018-12-29T02:26:23.056Z,8.49
2018-12-29T02:28:53.422Z,8.52
2018-12-29T02:31:23.760Z,8.51
2018-12-29T02:33:54.102Z,8.43
2018-12-29T02:36:24.455Z,8.40
2018-12-29T02:38:54.750Z,8.35
2018-12-29T02:41:25.120Z,8.35
2018-12-29T02:43:55.416Z,8.19
2018-12-29T02:46:25.787Z,8.19
2018-12-29T02:48:56.122Z,8.04
2018-12-29T02:51:26.482Z,8.07
2018-12-29T02:53:56.882Z,8.02
2018-12-29T02:56:27.206Z,7.99
2018-12-29T02:58:57.571Z,7.99
2018-12-29T03:01:27.894Z,8.00
2018-12-29T03:03:58.231Z,7.86
2018-12-29T03:06:28.592Z,7.96
2018-12-29T03:08:58.997Z,7.82
2018-12-29T03:11:29.415Z,7.85
2018-12-29T03:13:59.779Z,7.88
2018-12-29T03:16:30.151Z,7.83
2018-12-29T03:19:00.559Z,7.79
2018-12-29T03:21:30.881Z,7.79
2018-12-29T03:24:01.203Z,7.76
2018-12-29T03:26:31.607Z,7.78
2018-12-29T03:29:01.969Z,7.75
2018-12-29T03:31:32.339Z,7.77
2018-12-29T03:34:02.641Z,7.69
2018-12-29T03:36:33.004Z,7.73
2018-12-29T03:39:04.491Z,7.71
2018-12-29T03:41:34.888Z,7.70
2018-12-29T03:44:05.217Z,7.69
2018-12-29T03:46:35.581Z,7.72
2018-12-29T03:49:05.909Z,7.72
2018-12-29T03:51:36.244Z,7.78
2018-12-29T03:54:06.613Z,7.76
2018-12-29T03:56:37.028Z,7.72
2018-12-29T03:59:07.390Z,7.71
2018-12-29T04:01:37.761Z,7.79
2018-12-29T04:04:08.127Z,7.72
2018-12-29T04:06:38.492Z,7.78
2018-12-29T04:09:33.157Z,7.77
2018-12-29T04:12:22.882Z,7.78
2018-12-29T04:14:53.253Z,7.70
2018-12-29T04:17:23.752Z,7.71
2018-12-29T04:19:54.165Z,7.67
2018-12-29T04:22:24.535Z,7.69
2018-12-29T04:24:54.957Z,7.67
2018-12-29T04:27:25.288Z,7.69
2018-12-29T04:29:55.631Z,7.63
2018-12-29T04:32:25.969Z,7.59
2018-12-29T04:34:56.305Z,7.55
2018-12-29T04:37:26.642Z,7.49
2018-12-29T04:39:56.947Z,7.49
2018-12-29T04:42:27.321Z,7.43
2018-12-29T04:44:57.646Z,7.41
2018-12-29T04:47:27.985Z,7.34
2018-12-29T04:49:58.287Z,7.28
2018-12-29T04:52:28.659Z,7.31
2018-12-29T04:54:59.052Z,7.30
2018-12-29T04:57:29.398Z,7.28
2018-12-29T04:59:59.724Z,7.28
2018-12-29T05:02:30.123Z,7.30
2018-12-29T05:05:00.491Z,7.32
2018-12-29T05:07:30.860Z,7.25
2018-12-29T05:10:01.312Z,7.27
2018-12-29T05:12:31.674Z,7.24
2018-12-29T05:15:02.003Z,7.28
2018-12-29T05:17:32.308Z,7.21
2018-12-29T05:20:02.649Z,7.22
2018-12-29T05:22:33.059Z,7.25
2018-12-29T05:25:03.388Z,7.24
2018-12-29T05:27:33.790Z,7.16
2018-12-29T05:30:04.417Z,7.17
2018-12-29T05:32:34.779Z,7.18
2018-12-29T05:35:05.193Z,7.22
2018-12-29T05:37:35.489Z,7.19
2018-12-29T05:40:05.849Z,7.17
2018-12-29T05:42:36.180Z,7.23
2018-12-29T05:45:06.694Z,7.17
2018-12-29T05:47:37.023Z,7.20
2018-12-29T05:50:07.414Z,7.24
2018-12-29T05:52:37.797Z,7.31
2018-12-29T05:55:08.196Z,7.36
2018-12-29T05:57:38.567Z,7.43
2018-12-29T06:00:09.114Z,7.50
2018-12-29T06:02:39.456Z,7.55
2018-12-29T06:05:09.838Z,7.62
2018-12-29T06:07:40.235Z,7.70
2018-12-29T06:10:10.721Z,7.73
2018-12-29T06:12:41.073Z,7.79
2018-12-29T06:15:11.409Z,7.83
2018-12-29T06:17:41.788Z,7.82
2018-12-29T06:20:12.115Z,7.82
2018-12-29T06:22:42.484Z,7.88
2018-12-29T06:25:12.907Z,7.89
2018-12-29T06:27:43.343Z,7.95
2018-12-29T06:30:13.775Z,7.98
2018-12-29T06:32:44.131Z,8.03
2018-12-29T06:35:14.554Z,8.00
2018-12-29T06:37:44.894Z,7.97
2018-12-29T06:40:15.231Z,8.01
2018-12-29T06:42:45.557Z,8.00
2018-12-29T06:45:15.880Z,7.98
2018-12-29T06:47:46.220Z,8.05
2018-12-29T06:50:16.513Z,8.10
2018-12-29T06:52:46.875Z,8.11
2018-12-29T06:55:17.203Z,8.14
2018-12-29T06:57:47.613Z,8.21
2018-12-29T07:00:17.979Z,8.23
2018-12-29T07:02:48.329Z,8.34
2018-12-29T07:05:18.737Z,8.43
2018-12-29T07:07:49.060Z,8.40
2018-12-29T07:10:19.431Z,8.44
2018-12-29T07:12:49.740Z,8.39
2018-12-29T07:15:20.087Z,8.36
2018-12-29T07:17:50.418Z,8.36
2018-12-29T07:20:20.755Z,8.39
2018-12-29T07:22:51.112Z,8.32
2018-12-29T07:25:21.518Z,8.33
2018-12-29T07:27:51.892Z,8.34
2018-12-29T07:30:22.214Z,8.26
2018-12-29T07:32:52.556Z,8.30
2018-12-29T07:35:22.890Z,8.20
2018-12-29T07:37:53.217Z,8.28
2018-12-29T07:40:23.515Z,8.27
2018-12-29T07:42:54.000Z,8.25
2018-12-29T07:45:24.331Z,8.29
2018-12-29T07:47:54.668Z,8.37
2018-12-29T07:50:24.999Z,8.37
2018-12-29T07:52:55.407Z,8.44
2018-12-29T07:55:25.768Z,8.52
2018-12-29T07:57:56.097Z,8.57
2018-12-29T08:00:27.435Z,8.55
2018-12-29T08:02:57.882Z,8.65
2018-12-29T08:05:28.216Z,8.62
2018-12-29T08:07:58.630Z,8.62
2018-12-29T08:10:28.993Z,8.67
2018-12-29T08:12:59.368Z,8.76
2018-12-29T08:15:29.789Z,8.83
2018-12-29T08:18:00.202Z,8.75
2018-12-29T08:20:30.536Z,8.79
2018-12-29T08:23:00.843Z,8.78
2018-12-29T08:25:31.215Z,8.68
2018-12-29T08:28:01.544Z,8.78
2018-12-29T08:30:31.883Z,8.78
2018-12-29T08:33:02.218Z,8.83
2018-12-29T08:35:32.542Z,8.85
2018-12-29T08:38:02.870Z,8.96
2018-12-29T08:40:33.219Z,8.96
2018-12-29T08:43:03.590Z,9.03
2018-12-29T08:45:33.964Z,9.02
2018-12-29T08:48:04.377Z,9.00
2018-12-29T08:50:34.736Z,9.02
2018-12-29T08:53:05.145Z,8.98
2018-12-29T08:55:35.496Z,8.96
2018-12-29T08:58:05.878Z,8.99
2018-12-29T09:00:36.171Z,8.96
2018-12-29T09:03:06.512Z,9.02
2018-12-29T09:05:36.844Z,8.98
2018-12-29T09:08:07.221Z,8.96
2018-12-29T09:10:37.595Z,8.91
2018-12-29T09:13:07.963Z,9.05
2018-12-29T09:15:39.270Z,9.06
2018-12-29T09:18:09.683Z,9.12
2018-12-29T09:20:40.064Z,9.08
2018-12-29T09:23:10.399Z,9.11
2018-12-29T09:25:40.802Z,9.11
2018-12-29T09:28:11.141Z,9.21
2018-12-29T09:30:41.583Z,9.12
2018-12-29T09:33:11.929Z,9.17
2018-12-29T09:35:42.248Z,9.24
2018-12-29T09:38:12.592Z,9.20
2018-12-29T09:40:42.936Z,9.24
2018-12-29T09:43:13.340Z,9.28
2018-12-29T09:45:43.675Z,9.19
2018-12-29T09:48:14.002Z,9.21
2018-12-29T09:50:44.402Z,9.26
2018-12-29T09:53:14.760Z,9.21
2018-12-29T09:55:45.135Z,9.22
2018-12-29T09:58:15.500Z,9.19
2018-12-29T10:00:45.884Z,9.27
2018-12-29T10:03:16.211Z,9.29
2018-12-29T10:05:46.502Z,9.27
2018-12-29T10:08:16.837Z,9.27
2018-12-29T10:10:47.214Z,9.30
2018-12-29T10:13:17.549Z,9.31
2018-12-29T10:15:47.927Z,9.35
2018-12-29T10:18:18.262Z,9.35
2018-12-29T10:20:48.635Z,9.37
2018-12-29T10:23:19.143Z,9.37
2018-12-29T10:25:49.476Z,9.53
2018-12-29T10:28:19.843Z,9.53
2018-12-29T10:30:50.175Z,9.60
2018-12-29T10:33:20.542Z,9.60
2018-12-29T10:35:50.907Z,9.61
2018-12-29T10:38:21.275Z,9.67
2018-12-29T10:40:51.637Z,9.65
2018-12-29T10:43:22.054Z,9.13
2018-12-29T10:45:52.428Z,9.73
2018-12-29T10:48:22.831Z,9.73
2018-12-29T10:50:53.162Z,9.84
2018-12-29T10:53:23.534Z,9.85
2018-12-29T10:55:53.910Z,9.82
2018-12-29T10:58:24.398Z,9.78
2018-12-29T11:00:54.758Z,9.85
2018-12-29T11:03:25.093Z,9.89
2018-12-29T11:05:55.424Z,9.84
2018-12-29T11:08:25.777Z,9.86
2018-12-29T11:10:56.078Z,9.91
2018-12-29T11:13:26.423Z,9.93
2018-12-29T11:15:56.814Z,9.74
2018-12-29T11:18:27.162Z,9.77
2018-12-29T11:20:57.526Z,9.78
2018-12-29T11:23:27.896Z,9.79
2018-12-29T11:25:58.309Z,9.76
2018-12-29T11:28:28.680Z,9.64
2018-12-29T11:30:59.041Z,9.65
2018-12-29T11:33:29.406Z,9.54
2018-12-29T11:35:59.778Z,9.61
2018-12-29T11:38:30.111Z,9.61
2018-12-29T11:41:00.456Z,9.59
2018-12-29T11:43:30.846Z,9.67
2018-12-29T11:46:01.219Z,9.69
2018-12-29T11:48:31.585Z,9.71
2018-12-29T11:51:02.054Z,9.67
2018-12-29T11:53:32.735Z,9.69
2018-12-29T11:56:03.097Z,9.68
2018-12-29T11:58:33.473Z,9.59
2018-12-29T12:01:03.764Z,9.53
2018-12-29T12:03:34.116Z,9.61
2018-12-29T12:06:04.484Z,9.54
2018-12-29T12:08:34.773Z,9.60
2018-12-29T12:11:05.156Z,9.59
2018-12-29T12:13:35.542Z,9.53
2018-12-29T12:16:05.921Z,9.59
2018-12-29T12:18:36.217Z,9.62
2018-12-29T12:21:06.615Z,9.54
2018-12-29T12:23:37.005Z,9.58
2018-12-29T12:26:07.648Z,9.47
2018-12-29T12:28:38.133Z,9.55
2018-12-29T12:31:08.537Z,9.44
2018-12-29T12:33:38.904Z,9.46
2018-12-29T12:36:09.291Z,9.47
2018-12-29T12:38:39.655Z,9.55
2018-12-29T12:41:10.030Z,9.43
2018-12-29T12:43:40.361Z,9.50
2018-12-29T12:46:10.972Z,9.51
2018-12-29T12:48:41.305Z,9.50
2018-12-29T12:51:11.658Z,9.43
2018-12-29T12:53:41.993Z,9.41
2018-12-29T12:56:12.327Z,9.37
2018-12-29T12:58:42.664Z,9.32
2018-12-29T13:01:13.382Z,9.32
2018-12-29T13:03:43.748Z,8.64
2018-12-29T13:06:14.119Z,9.39
2018-12-29T13:08:44.534Z,9.38
2018-12-29T13:11:15.003Z,9.38
2018-12-29T13:13:45.539Z,9.44
2018-12-29T13:16:15.914Z,9.29
2018-12-29T13:18:46.293Z,9.35
2018-12-29T13:21:16.629Z,9.30
2018-12-29T13:23:46.919Z,9.38
2018-12-29T13:26:17.288Z,9.42
2018-12-29T13:28:47.620Z,9.25
2018-12-29T13:31:17.990Z,9.26
2018-12-29T13:33:48.317Z,9.11
2018-12-29T13:36:18.658Z,9.10
2018-12-29T13:38:48.993Z,9.02
2018-12-29T13:41:19.363Z,9.05
2018-12-29T13:43:49.763Z,9.08
2018-12-29T13:46:20.426Z,8.99
2018-12-29T13:48:50.803Z,9.04
2018-12-29T13:51:21.141Z,9.04
2018-12-29T13:53:51.469Z,9.01
2018-12-29T13:56:21.801Z,9.07
2018-12-29T13:58:52.129Z,8.99
2018-12-29T14:01:22.529Z,8.91
2018-12-29T14:03:52.924Z,8.94
2018-12-29T14:06:23.250Z,8.93
2018-12-29T14:08:53.578Z,8.97
2018-12-29T14:11:23.950Z,9.01
2018-12-29T14:13:54.278Z,8.90
2018-12-29T14:16:24.690Z,8.94
2018-12-29T14:18:55.481Z,8.91
2018-12-29T14:21:25.899Z,8.94
2018-12-29T14:23:56.262Z,8.96
2018-12-29T14:26:26.563Z,8.86
2018-12-29T14:28:56.905Z,8.88
2018-12-29T14:31:27.201Z,8.88
2018-12-29T14:33:57.551Z,8.79
2018-12-29T14:36:27.886Z,8.71
2018-12-29T14:38:58.232Z,8.74
2018-12-29T14:41:28.727Z,8.67
2018-12-29T14:43:59.090Z,8.63
2018-12-29T14:46:29.462Z,8.54
2018-12-29T14:48:59.833Z,8.50
2018-12-29T14:51:30.552Z,8.42
2018-12-29T14:54:00.882Z,8.41
2018-12-29T14:56:31.221Z,8.35
2018-12-29T14:59:01.602Z,8.33
2018-12-29T15:01:32.016Z,8.29
2018-12-29T15:04:02.410Z,8.26
2018-12-29T15:06:32.774Z,8.27
2018-12-29T15:09:04.769Z,8.25
2018-12-29T15:11:35.138Z,8.17
2018-12-29T15:14:05.464Z,8.07
2018-12-29T15:16:36.061Z,8.22
2018-12-29T15:19:06.437Z,8.13
2018-12-29T15:21:37.105Z,8.03
2018-12-29T15:24:08.989Z,8.00
2018-12-29T15:26:39.372Z,8.00
2018-12-29T15:29:10.018Z,7.97
2018-12-29T15:31:40.374Z,7.96
2018-12-29T15:34:10.701Z,7.94
2018-12-29T15:36:41.173Z,7.96
2018-12-29T15:39:11.477Z,7.94
2018-12-29T15:41:41.801Z,7.93
2018-12-29T15:44:12.196Z,7.85
2018-12-29T15:46:42.557Z,7.81
2018-12-29T15:49:12.922Z,7.70
2018-12-29T15:51:43.417Z,7.73
2018-12-29T15:54:13.825Z,7.79
2018-12-29T15:56:44.152Z,7.73
2018-12-29T15:59:14.495Z,7.76
2018-12-29T16:01:44.872Z,7.81
2018-12-29T16:04:15.194Z,7.82
2018-12-29T16:06:45.602Z,7.81
2018-12-29T16:09:15.971Z,7.72
2018-12-29T16:11:46.644Z,7.72
2018-12-29T16:14:17.017Z,7.81
2018-12-29T16:16:47.667Z,7.76
2018-12-29T16:19:18.038Z,7.78
2018-12-29T16:21:48.450Z,7.77
2018-12-29T16:24:18.967Z,7.72
2018-12-29T16:26:49.307Z,7.73
2018-12-29T16:29:19.598Z,7.81
2018-12-29T16:31:49.931Z,7.80
2018-12-29T16:34:20.303Z,7.84
2018-12-29T16:36:50.658Z,7.83
2018-12-29T16:39:21.028Z,7.80
2018-12-29T16:41:51.441Z,7.82
2018-12-29T16:44:21.842Z,7.84
2018-12-29T16:46:52.393Z,7.80
2018-12-29T16:49:22.723Z,7.80
2018-12-29T16:51:53.092Z,7.74
2018-12-29T16:54:23.470Z,7.82
2018-12-29T16:56:53.832Z,7.82
2018-12-29T16:59:24.409Z,7.84
2018-12-29T17:01:54.736Z,7.81
2018-12-29T17:04:25.109Z,7.81
2018-12-29T17:06:55.446Z,7.81
2018-12-29T17:09:26.028Z,7.88
2018-12-29T17:11:56.331Z,7.86
2018-12-29T17:14:26.633Z,7.84
2018-12-29T17:16:57.005Z,7.82
2018-12-29T17:19:27.367Z,7.81
2018-12-29T17:21:57.766Z,7.86
2018-12-29T17:24:28.178Z,7.82
2018-12-29T17:26:58.924Z,7.87
2018-12-29T17:29:29.336Z,7.84
2018-12-29T17:31:59.706Z,7.92
2018-12-29T17:34:30.082Z,7.91
2018-12-29T17:37:00.535Z,7.88
2018-12-29T17:39:30.891Z,7.87
2018-12-29T17:42:01.213Z,7.87
2018-12-29T17:44:31.544Z,7.81
2018-12-29T17:47:01.917Z,7.85
2018-12-29T17:49:32.251Z,7.82
2018-12-29T17:52:02.866Z,7.90
2018-12-29T17:54:33.168Z,7.83
2018-12-29T17:57:03.549Z,7.82
2018-12-29T17:59:33.836Z,7.89
2018-12-29T18:02:04.266Z,7.82
2018-12-29T18:04:34.923Z,7.79
2018-12-29T18:07:05.325Z,7.83
2018-12-29T18:09:35.648Z,7.84
2018-12-29T18:12:06.036Z,7.82
2018-12-29T18:14:36.357Z,7.78
2018-12-29T18:17:06.694Z,7.76
2018-12-29T18:19:37.027Z,7.70
2018-12-29T18:22:07.612Z,7.70
2018-12-29T18:24:37.981Z,7.63
2018-12-29T18:27:08.353Z,7.65
2018-12-29T18:29:38.754Z,7.61
2018-12-29T18:32:09.123Z,7.58
2018-12-29T18:34:39.697Z,7.53
2018-12-29T18:37:10.030Z,7.47
2018-12-29T18:39:40.403Z,7.49
2018-12-29T18:42:10.696Z,7.52
2018-12-29T18:44:41.028Z,7.48
2018-12-29T18:47:11.352Z,7.43
2018-12-29T18:49:41.695Z,7.43
2018-12-29T18:52:12.077Z,7.40
2018-12-29T18:54:42.458Z,7.37
2018-12-29T18:57:12.745Z,7.44
2018-12-29T18:59:43.076Z,7.37
2018-12-29T19:02:13.410Z,7.43
2018-12-29T19:04:44.198Z,7.34
2018-12-29T19:07:14.535Z,7.35
2018-12-29T19:09:45.856Z,7.32
2018-12-29T19:12:16.413Z,7.40
2018-12-29T19:14:46.794Z,7.42
2018-12-29T19:17:17.296Z,7.35
2018-12-29T19:19:47.716Z,7.30
2018-12-29T19:22:18.125Z,7.35
2018-12-29T19:24:48.527Z,7.29
2018-12-29T19:27:18.865Z,7.24
2018-12-29T19:29:49.197Z,7.25
2018-12-29T19:32:19.887Z,7.21
2018-12-29T19:34:50.490Z,7.29
2018-12-29T19:37:20.901Z,7.22
2018-12-29T19:39:51.262Z,7.20
2018-12-29T19:42:21.634Z,7.15
2018-12-29T19:44:52.196Z,7.16
2018-12-29T19:47:22.500Z,7.15
2018-12-29T19:49:53.827Z,7.17
2018-12-29T19:52:24.345Z,7.20
2018-12-29T19:54:54.643Z,7.19
2018-12-29T19:57:25.290Z,7.21
2018-12-29T19:59:55.617Z,7.17
2018-12-29T20:02:26.396Z,7.16
2018-12-29T20:04:57.472Z,7.18
2018-12-29T20:07:28.005Z,7.09
2018-12-29T20:09:58.363Z,7.08
2018-12-29T20:12:28.689Z,7.05
2018-12-29T20:14:59.022Z,7.06
2018-12-29T20:17:34.963Z,7.11
2018-12-29T20:20:01.847Z,7.08
2018-12-29T20:22:32.368Z,6.39
2018-12-29T20:25:02.733Z,7.15
2018-12-29T20:27:33.131Z,6.39
2018-12-29T20:30:03.910Z,7.12
2018-12-29T20:32:34.273Z,7.14
2018-12-29T20:35:04.705Z,7.18
2018-12-29T20:37:35.190Z,7.18
2018-12-29T20:40:06.428Z,7.21
2018-12-29T20:42:36.765Z,7.17
2018-12-29T20:45:07.352Z,7.14
2018-12-29T20:47:37.715Z,7.15
2018-12-29T20:50:09.641Z,7.11
2018-12-29T20:52:40.997Z,7.13
2018-12-29T20:55:11.326Z,7.17
2018-12-29T20:57:41.655Z,7.08
2018-12-29T21:00:12.123Z,7.09
2018-12-29T21:02:42.485Z,7.13
2018-12-29T21:05:13.081Z,7.11
2018-12-29T21:07:43.487Z,7.13
2018-12-29T21:10:13.889Z,7.02
2018-12-29T21:12:44.295Z,7.06
2018-12-29T21:15:14.653Z,7.07
2018-12-29T21:17:45.153Z,7.05
2018-12-29T21:20:17.532Z,7.00
2018-12-29T21:22:47.605Z,6.98
2018-12-29T21:25:17.969Z,7.00
2018-12-29T21:27:48.327Z,6.91
2018-12-29T21:30:18.692Z,6.95
2018-12-29T21:32:49.143Z,6.89
2018-12-29T21:35:19.537Z,6.95
2018-12-29T21:37:49.903Z,6.87
2018-12-29T21:40:20.259Z,6.83
2018-12-29T21:42:50.557Z,6.79
2018-12-29T21:45:20.884Z,6.84
2018-12-29T21:47:51.218Z,6.81
2018-12-29T21:50:25.305Z,6.76
2018-12-29T21:52:53.592Z,6.77
2018-12-29T21:55:23.954Z,6.69
2018-12-29T21:57:54.246Z,6.65
2018-12-29T22:00:24.613Z,6.66
2018-12-29T22:02:54.970Z,6.54
2018-12-29T22:05:25.647Z,5.83
2018-12-29T22:07:56.010Z,6.53
2018-12-29T22:10:26.373Z,6.49
2018-12-29T22:12:56.730Z,6.40
2018-12-29T22:15:27.094Z,6.47
2018-12-29T22:17:57.731Z,6.44
2018-12-29T22:20:33.228Z,6.34
2018-12-29T22:23:00.150Z,6.31
2018-12-29T22:25:30.534Z,6.28
2018-12-29T22:28:00.885Z,6.26
2018-12-29T22:30:31.209Z,6.22
2018-12-29T22:33:01.572Z,6.18
2018-12-29T22:35:31.907Z,6.17
2018-12-29T22:38:02.310Z,6.07
2018-12-29T22:40:32.671Z,6.07
2018-12-29T22:43:03.364Z,6.08
2018-12-29T22:45:33.729Z,6.08
2018-12-29T22:48:04.017Z,6.06
2018-12-29T22:50:40.859Z,5.90
2018-12-29T22:53:06.411Z,5.98
2018-12-29T22:55:36.710Z,6.02
2018-12-29T22:58:08.760Z,5.99
2018-12-29T23:00:40.553Z,5.99
2018-12-29T23:03:11.000Z,5.92
2018-12-29T23:05:41.327Z,5.87
2018-12-29T23:08:11.730Z,5.85
2018-12-29T23:10:42.224Z,5.84
2018-12-29T23:13:12.544Z,5.86
2018-12-29T23:15:42.924Z,5.80
2018-12-29T23:18:13.330Z,5.77
2018-12-29T23:20:48.969Z,5.76
2018-12-29T23:23:15.920Z,5.79
2018-12-29T23:25:46.629Z,5.74
2018-12-29T23:28:17.032Z,5.71
2018-12-29T23:30:47.425Z,5.69
2018-12-29T23:33:17.805Z,5.64
2018-12-29T23:35:48.207Z,5.64
2018-12-29T23:38:18.606Z,5.57
2018-12-29T23:40:48.970Z,5.54
2018-12-29T23:43:19.299Z,5.48
2018-12-29T23:45:49.771Z,5.49
2018-12-29T23:48:20.142Z,5.47
2018-12-29T23:51:05.121Z,5.47
2018-12-29T23:53:22.486Z,5.52
2018-12-29T23:55:53.026Z,5.38
2018-12-29T23:58:23.322Z,5.42
